• Join FlightAware (Why Join?)
  • Login
  • US Flag 
07:24AM EDT


 

Airport Tracker/Info


-or-


 

Live Flight TrackerFlight Track Log ✈ UAL4462 ✈ 01-May-2013 ✈ KEWR - KOMA

Flight Track Log - Related Links

Times and Time Zones

All times are in EDT time to prevent confusion due to time zone crossing. See the UAL4462 flight status page for this flight to view local times or setup timezone preferences in your user account.

Time Position Orientation Groundspeed Altitude Reporting Facility
EDT Latitude Longitude Course Direction KTS MPH feet Rate Location/Type
08:06AM 40.7333 -74.1333 288° West 167 192 1,900  Level New York TRACON
08:07AM 40.7500 -74.1667 303° West 233 268 3,700 2,100 Climbing New York TRACON
08:08AM 40.7667 -74.2667 282° West 275 316 6,000 2,460 Climbing New York TRACON
08:09AM 40.8085 -74.7199 287° West  Level FlightAware Approximate
08:09AM 40.8000 -74.3500 298° West 281 323 8,700  Level New York TRACON
08:10AM 40.8409 -74.8602 287° West  Level FlightAware Approximate
08:11AM 40.8742 -74.9969 288° West  Level FlightAware Approximate
08:11AM 40.8853 -74.5889 295° West 338 389 12,400  Level New York Center
08:12AM 40.9294 -74.7067 296° West 344 396 14,100 1,680 Climbing New York Center
08:13AM 40.9458 -74.8367 280° West 354 407 15,800 1,500 Climbing New York Center
08:14AM 40.9347 -74.9736 264° West 370 426 17,200 1,080 Climbing New York Center
08:15AM 40.9233 -75.1128 264° West 382 440 18,100 1,080 Climbing New York Center
08:16AM 40.8972 -75.2539 256° West 390 449 19,400 1,260 Climbing New York Center
08:17AM 40.8689 -75.3947 255° West 395 455 20,700 1,260 Climbing New York Center
08:18AM 40.8342 -75.5378 252° West 400 460 22,000 1,260 Climbing New York Center
08:19AM 40.8011 -75.6836 253° West 405 466 23,300 1,140 Climbing New York Center
08:20AM 40.7708 -75.8075 252° West 405 466 24,300 1,140 Climbing New York Center
08:21AM 40.7356 -75.9500 252° West 411 473 25,600 1,260 Climbing New York Center
08:22AM 40.7019 -76.0953 253° West 411 473 26,900 1,260 Climbing New York Center
08:23AM 40.6686 -76.2322 252° West 406 467 28,200 1,260 Climbing New York Center
08:24AM 40.6831 -76.3731 278° West 390 449 29,500 1,200 Climbing New York Center
08:25AM 40.7056 -76.5089 282° West 384 442 30,700 1,200 Climbing New York Center
08:26AM 40.7242 -76.6419 280° West 384 442 32,000 1,320 Climbing New York Center
08:27AM 40.7425 -76.7750 280° West 374 430 33,300 1,260 Climbing New York Center
08:28AM 40.7628 -76.9083 281° West 374 430 34,500 960 Climbing New York Center
08:29AM 40.7808 -77.0361 281° West 374 430 35,300 600 Climbing New York Center
08:30AM 40.8011 -77.1642 282° West 369 425 35,800 300 Climbing New York Center
08:31AM 40.8192 -77.2947 280° West 364 419 36,000 60 Climbing New York Center
08:32AM 40.8383 -77.4339 280° West 371 427 36,000  Level New York Center
08:35AM 40.8947 -77.8225 281° West 417 480 36,000  Level Cleveland Center
08:36AM 40.9128 -77.9617 280° West 430 495 36,000  Level Cleveland Center
08:37AM 40.9331 -78.1233 279° West 437 503 36,000  Level Cleveland Center
08:38AM 40.9550 -78.2847 280° West 448 516 36,000  Level Cleveland Center
08:39AM 40.9747 -78.4433 279° West 448 516 36,000  Level Cleveland Center
08:40AM 40.9944 -78.6025 279° West 448 516 36,000  Level Cleveland Center
08:41AM 41.0117 -78.7614 278° West 448 516 36,000  Level Cleveland Center
08:42AM 41.0308 -78.9206 279° West 448 516 36,000  Level Cleveland Center
08:43AM 41.0497 -79.0853 279° West 448 516 36,000  Level Cleveland Center
08:44AM 41.0661 -79.2447 278° West 448 516 36,000  Level Cleveland Center
08:45AM 41.0847 -79.4042 279° West 448 516 36,000  Level Cleveland Center
08:46AM 41.1028 -79.5636 279° West 448 516 36,000  Level Cleveland Center
08:47AM 41.1189 -79.7231 278° West 443 510 36,000  Level Cleveland Center
08:48AM 41.1386 -79.8856 279° West 443 510 36,000  Level Cleveland Center
08:49AM 41.1542 -80.0481 277° West 443 510 36,000  Level Cleveland Center
08:50AM 41.1714 -80.2081 278° West 443 510 36,000  Level Cleveland Center
08:51AM 41.1906 -80.3900 278° West 448 516 36,000  Level Cleveland Center
08:52AM 41.2033 -80.5333 277° West 454 522 36,000  Level Cleveland Center
08:53AM 41.2200 -80.6964 278° West 449 517 36,000  Level Cleveland Center
08:54AM 41.2364 -80.8564 278° West 444 511 36,000  Level Cleveland Center
08:55AM 41.2525 -81.0194 278° West 449 517 36,000  Level Cleveland Center
08:56AM 41.2642 -81.1853 275° West 443 510 36,000  Level Cleveland Center
08:57AM 41.2736 -81.3456 275° West 443 510 36,000  Level Cleveland Center
08:58AM 41.2911 -81.5256 277° West 443 510 36,000  Level Cleveland Center
08:59AM 41.3022 -81.6858 275° West 443 510 36,000  Level Cleveland Center
09:00AM 41.3108 -81.8519 274° West 443 510 36,000  Level Cleveland Center
09:01AM 41.3194 -82.0153 274° West 443 510 36,000  Level Cleveland Center
09:02AM 41.3278 -82.1647 274° West 443 510 36,000  Level Cleveland Center
09:03AM 41.3381 -82.3281 275° West 449 517 36,000  Level Cleveland Center
09:04AM 41.3478 -82.4944 275° West 449 517 36,000  Level Cleveland Center
09:05AM 41.3553 -82.6550 274° West 442 509 36,000  Level Cleveland Center
09:06AM 41.3647 -82.8242 274° West 447 514 36,000  Level Cleveland Center
09:07AM 41.3758 -83.0017 275° West 447 514 36,000  Level Cleveland Center
09:08AM 41.3847 -83.1653 274° West 447 514 36,000  Level Cleveland Center
09:09AM 41.3911 -83.3289 273° West 447 514 36,000  Level Cleveland Center
09:10AM 41.3997 -83.4925 274° West 447 514 36,000  Level Cleveland Center
09:11AM 41.4078 -83.6592 274° West 447 514 36,000  Level Cleveland Center
09:12AM 41.4158 -83.8256 274° West 447 514 36,000  Level Cleveland Center
09:13AM 41.4214 -83.9867 273° West 452 520 36,000  Level Cleveland Center
09:14AM 41.4372 -84.2386 275° West 451 519 36,000  Level Chicago Center
09:15AM 41.4431 -84.4056 273° West 451 519 36,000  Level Chicago Center
09:16AM 41.4506 -84.5731 273° West 452 520 36,000  Level Chicago Center
09:17AM 41.4578 -84.7400 273° West 452 520 36,000  Level Chicago Center
09:18AM 41.4633 -84.9081 273° West 455 524 36,000  Level Chicago Center
09:19AM 41.4711 -85.1092 273° West 452 520 36,000  Level Chicago Center
09:20AM 41.4756 -85.2769 272° West 451 519 36,000  Level Chicago Center
09:21AM 41.4800 -85.4486 272° West 452 520 36,000  Level Chicago Center
09:22AM 41.4869 -85.6194 273° West 453 521 36,000  Level Chicago Center
09:24AM 41.4922 -85.7869 272° West 450 518 36,000  Level Chicago Center
09:25AM 41.4972 -85.9558 272° West 455 524 36,000  Level Chicago Center
09:26AM 41.5019 -86.1256 272° West 457 526 36,000  Level Chicago Center
09:27AM 41.5064 -86.2936 272° West 456 525 36,000  Level Chicago Center
09:28AM 41.5117 -86.4964 272° West 456 525 36,000  Level Chicago Center
09:29AM 41.5156 -86.6664 272° West 459 528 36,000  Level Chicago Center
09:30AM 41.5175 -86.8281 271° West 445 512 36,000  Level Chicago Center
09:31AM 41.5222 -86.9986 272° West 459 528 36,000  Level Chicago Center
09:32AM 41.5264 -87.1675 272° West 458 527 36,000  Level Chicago Center
09:33AM 41.5289 -87.3686 271° West 455 524 36,000  Level Chicago Center
09:34AM 41.5311 -87.5353 271° West 453 521 36,000  Level Chicago Center
09:35AM 41.5342 -87.7008 271° West 451 519 36,000  Level Chicago Center
09:36AM 41.5356 -87.8661 271° West 451 519 36,000  Level Chicago Center
09:37AM 41.5389 -88.0578 271° West 446 513 36,000  Level Chicago Center
09:38AM 41.5394 -88.2172 270° West 445 512 36,000  Level Chicago Center
09:39AM 41.5411 -88.3794 271° West 444 511 36,000  Level Chicago Center
09:40AM 41.5414 -88.5400 270° West 439 505 36,000  Level Chicago Center
09:41AM 41.5422 -88.7000 270° West 436 502 36,000  Level Chicago Center
09:42AM 41.5428 -88.8925 270° West 437 503 36,000  Level Chicago Center
09:43AM 41.5431 -89.0528 270° West 435 501 36,000  Level Chicago Center
09:44AM 41.5439 -89.2131 270° West 435 501 36,000  Level Chicago Center
09:45AM 41.5453 -89.3731 271° West 433 498 36,000  Level Chicago Center
09:46AM 41.5456 -89.5317 270° West 429 494 36,000  Level Chicago Center
09:47AM 41.5433 -89.7033 269° West 431 496 36,000  Level Chicago Center
09:48AM 41.5433 -89.8611 270° West 428 493 36,000  Level Chicago Center
09:49AM 41.5422 -90.0203 270° West 429 494 36,000  Level Chicago Center
09:50AM 41.5411 -90.2100 270° West 429 494 36,000  Level Chicago Center
09:51AM 41.5386 -90.3733 269° West 440 506 36,000  Level Chicago Center
09:52AM 41.5361 -90.5328 269° West 433 498 36,000  Level Chicago Center
09:53AM 41.5347 -90.6936 269° West 432 497 36,000  Level Chicago Center
09:55AM 41.5319 -90.8533 269° West 434 499 36,000  Level Chicago Center
09:56AM 41.5294 -91.0136 269° West 434 499 36,000  Level Chicago Center
09:57AM 41.5272 -91.2078 269° West 437 503 36,000  Level Chicago Center
09:58AM 41.5236 -91.3686 268° West 437 503 36,000  Level Chicago Center
09:59AM 41.5211 -91.5303 269° West 437 503 36,000  Level Chicago Center
10:00AM 41.5175 -91.6914 268° West 436 502 36,000  Level Chicago Center
10:01AM 41.5114 -91.8519 267° West 436 502 36,000  Level Chicago Center
10:02AM 41.5053 -92.0444 268° West 436 502 36,000  Level Chicago Center
10:03AM 41.4992 -92.2050 267° West 435 501 36,000  Level Chicago Center
10:04AM 41.4933 -92.3667 267° West 436 502 36,000  Level Chicago Center
10:05AM 41.4869 -92.5283 267° West 429 494 36,000 -60 Level Chicago Center
10:06AM 41.4803 -92.6889 267° West 433 498 35,900 -420 Descending Chicago Center
10:07AM 41.4739 -92.8528 267° West 439 505 35,200 -720 Descending Minneapolis Center
10:08AM 41.4672 -93.0111 267° West 436 502 34,600 -600 Descending Minneapolis Center
10:09AM 41.4611 -93.1689 267° West 433 498 34,000 -300 Descending Minneapolis Center
10:10AM 41.4558 -93.3267 267° West 432 497 34,000  Level Minneapolis Center
10:11AM 41.4500 -93.4831 267° West 430 495 34,000  Level Minneapolis Center
10:12AM 41.4456 -93.6406 268° West 429 494 34,000  Level Minneapolis Center
10:13AM 41.4414 -93.8344 268° West 434 499 34,000  Level Minneapolis Center
10:14AM 41.4378 -93.9922 268° West 434 499 34,000  Level Minneapolis Center
10:15AM 41.4342 -94.1517 268° West 434 499 34,000 -720 Level Minneapolis Center
10:16AM 41.4281 -94.3169 267° West 436 502 32,600 -2,340 Descending Minneapolis Center
10:17AM 41.4269 -94.4722 270° West 425 489 29,300 -3,300 Descending Minneapolis Center
10:18AM 41.4278 -94.6317 270° West 428 493 25,900 -3,360 Descending Minneapolis Center
10:19AM 41.4458 -94.8200 277° West 429 494 21,800 -3,420 Descending Minneapolis Center
10:20AM 41.4878 -94.9672 291° West 399 459 19,000 -3,120 Descending Minneapolis Center
10:21AM 41.5044 -95.0517 285° West 390 449 17,500 -2,640 Descending Minneapolis Center
10:21AM 41.5119 -95.1269 278° West 390 449 15,700 -2,820 Descending Minneapolis Center
10:22AM 41.5275 -95.1961 287° West 365 420 14,400 -2,460 Descending Minneapolis Center
10:22AM 41.4925 -95.2408 224° Southwest 358 412 13,200 -2,100 Descending Minneapolis Center
10:23AM 41.4644 -95.2822 228° Southwest 325 374 12,300 -1,620 Descending Minneapolis Center
10:23AM 41.4175 -95.3097 204° Southwest 339 390 11,600 -1,200 Descending Minneapolis Center
10:24AM 41.3978 -95.3433 232° Southwest 288 331 11,100 -1,080 Descending Minneapolis Center
10:24AM 41.3556 -95.3703 206° Southwest 309 356 10,500 -1,800 Descending Minneapolis Center
10:25AM 41.3389 -95.3981 231° Southwest 237 273 9,300 -2,760 Descending Minneapolis Center
10:25AM 41.3031 -95.4203 205° Southwest 266 306 7,700 -3,180 Descending Minneapolis Center
10:26AM 41.2836 -95.4464 225° Southwest 232 267 6,100 -2,580 Descending Minneapolis Center
10:26AM 41.2475 -95.4719 208° Southwest 248 285 5,100 -1,500 Descending Minneapolis Center
10:27AM 41.2228 -95.5067 227° Southwest 255 293 4,600 -1,260 Descending Minneapolis Center
10:27AM 41.1914 -95.5314 211° Southwest 249 287 3,800 -1,500 Descending Minneapolis Center
10:28AM 41.1639 -95.5608 219° Southwest 261 300 3,100 -840 Descending Minneapolis Center
10:28AM 41.1325 -95.5847 210° Southwest 253 291 3,000 -120 Descending Minneapolis Center
10:29AM 41.1164 -95.5997 215° Southwest 238 274 3,000  Level Minneapolis Center
10:29AM 41.0825 -95.6389 221° Southwest 249 287 3,000  Level Minneapolis Center
10:30AM 41.0892 -95.6639 289° West 210 242 3,000  Level Minneapolis Center
10:31AM 41.1017 -95.7014 294° West 206 237 3,000  Level Minneapolis Center
10:31AM 41.1244 -95.7178 332° Northwest 153 176 3,000  Level Minneapolis Center
10:32AM 41.1469 -95.7425 320° Northwest 176 203 3,000  Level Minneapolis Center
10:32AM 41.1625 -95.7575 324° Northwest 155 178 3,000  Level Minneapolis Center
10:33AM 41.1817 -95.7750 326° Northwest 164 189 3,000  Level Minneapolis Center
10:33AM 41.1939 -95.7872 323° Northwest 154 177 3,000  Level Minneapolis Center